createdAt,value
2022-11-23T00:01:26.698Z,4.55
2022-11-23T00:03:56.116Z,4.63
2022-11-23T00:06:24.786Z,5.00
2022-11-23T00:08:52.443Z,4.40
2022-11-23T00:11:20.621Z,4.30
2022-11-23T00:13:47.899Z,3.83
2022-11-23T00:16:16.742Z,3.78
2022-11-23T00:18:43.857Z,4.20
2022-11-23T00:21:13.232Z,4.30
2022-11-23T00:23:40.006Z,3.60
2022-11-23T00:26:07.480Z,3.78
2022-11-23T00:28:37.238Z,3.85
2022-11-23T00:31:03.889Z,3.47
2022-11-23T00:33:30.690Z,3.60
2022-11-23T00:36:19.893Z,3.75
2022-11-23T00:38:48.060Z,3.78
2022-11-23T00:41:20.472Z,3.50
2022-11-23T00:43:47.499Z,3.08
2022-11-23T00:46:21.147Z,3.20
2022-11-23T00:48:49.720Z,3.20
2022-11-23T00:51:18.777Z,3.00
2022-11-23T00:53:45.755Z,2.92
2022-11-23T00:56:13.076Z,3.15
2022-11-23T00:58:40.487Z,2.97
2022-11-23T01:01:15.585Z,3.20
2022-11-23T01:03:45.065Z,3.35
2022-11-23T01:06:24.390Z,3.25
2022-11-23T01:08:54.907Z,3.25
2022-11-23T01:11:24.184Z,3.30
2022-11-23T01:13:51.473Z,2.75
2022-11-23T01:16:24.199Z,2.75
2022-11-23T01:18:58.944Z,3.78
2022-11-23T01:21:27.128Z,3.30
2022-11-23T01:23:54.604Z,2.90
2022-11-23T01:26:21.421Z,2.60
2022-11-23T01:28:49.020Z,4.82
2022-11-23T01:31:23.642Z,2.75
2022-11-23T01:33:55.458Z,3.30
2022-11-23T01:36:25.064Z,3.90
2022-11-23T01:38:51.863Z,3.60
2022-11-23T01:41:22.201Z,3.50
2022-11-23T01:43:49.607Z,3.35
2022-11-23T01:46:16.287Z,4.00
2022-11-23T01:48:56.591Z,3.58
2022-11-23T01:51:27.459Z,3.00
2022-11-23T01:54:00.598Z,3.45
2022-11-23T01:56:31.002Z,3.25
2022-11-23T01:59:02.683Z,3.20
2022-11-23T02:01:30.086Z,3.03
2022-11-23T02:04:00.707Z,3.60
2022-11-23T02:06:28.132Z,3.53
2022-11-23T02:08:54.727Z,3.67
2022-11-23T02:11:21.500Z,3.67
2022-11-23T02:13:50.638Z,3.72
2022-11-23T02:16:19.902Z,3.70
2022-11-23T02:18:49.727Z,3.67
2022-11-23T02:21:19.924Z,3.70
2022-11-23T02:24:12.751Z,3.53
2022-11-23T02:26:40.171Z,3.45
2022-11-23T02:29:17.396Z,3.78
2022-11-23T02:31:43.936Z,3.38
2022-11-23T02:34:10.423Z,3.25
2022-11-23T02:36:43.123Z,3.50
2022-11-23T02:39:24.511Z,2.85
2022-11-23T02:41:53.216Z,3.53
2022-11-23T02:44:41.171Z,2.97
2022-11-23T02:47:08.908Z,2.85
2022-11-23T02:49:35.588Z,3.28
2022-11-23T02:52:03.947Z,3.03
2022-11-23T02:54:30.691Z,2.80
2022-11-23T02:56:57.833Z,4.15
2022-11-23T02:59:24.890Z,3.25
2022-11-23T03:01:53.590Z,2.83
2022-11-23T03:04:27.136Z,2.72
2022-11-23T03:06:54.642Z,2.53
2022-11-23T03:09:21.533Z,2.95
2022-11-23T03:11:48.396Z,2.33
2022-11-23T03:14:16.531Z,2.50
2022-11-23T03:16:55.610Z,2.70
2022-11-23T03:19:23.552Z,2.50
2022-11-23T03:21:51.445Z,2.30
2022-11-23T03:24:18.170Z,2.30
2022-11-23T03:26:46.302Z,2.95
2022-11-23T03:29:18.501Z,2.40
2022-11-23T03:31:45.161Z,2.47
2022-11-23T03:34:14.535Z,3.00
2022-11-23T03:36:41.299Z,2.20
2022-11-23T03:39:08.495Z,2.08
2022-11-23T03:41:58.333Z,2.97
2022-11-23T03:44:30.867Z,2.50
2022-11-23T03:46:57.556Z,2.22
2022-11-23T03:49:26.351Z,2.63
2022-11-23T03:51:53.276Z,2.22
2022-11-23T03:54:19.794Z,2.33
2022-11-23T03:56:47.981Z,2.20
2022-11-23T03:59:14.492Z,2.42
2022-11-23T04:01:41.385Z,2.20
2022-11-23T04:04:14.857Z,2.67
2022-11-23T04:07:06.902Z,2.78
2022-11-23T04:09:39.155Z,2.40
2022-11-23T04:12:06.108Z,2.10
2022-11-23T04:14:35.381Z,1.92
2022-11-23T04:17:04.817Z,2.45
2022-11-23T04:19:32.857Z,2.08
2022-11-23T04:22:00.347Z,2.42
2022-11-23T04:24:30.388Z,2.20
2022-11-23T04:27:00.321Z,2.03
2022-11-23T04:29:27.063Z,2.17
2022-11-23T04:31:54.462Z,2.53
2022-11-23T04:34:21.963Z,2.10
2022-11-23T04:36:50.616Z,2.28
2022-11-23T04:39:20.128Z,2.53
2022-11-23T04:42:13.288Z,1.70
2022-11-23T04:44:46.988Z,2.03
2022-11-23T04:47:13.922Z,2.28
2022-11-23T04:49:40.881Z,1.92
2022-11-23T04:52:07.961Z,2.40
2022-11-23T04:54:41.292Z,2.08
2022-11-23T04:57:09.180Z,1.80
2022-11-23T04:59:39.645Z,2.58
2022-11-23T05:02:06.516Z,2.20
2022-11-23T05:04:47.906Z,1.92
2022-11-23T05:07:16.345Z,1.98
2022-11-23T05:09:46.855Z,1.60
2022-11-23T05:12:17.467Z,2.10
2022-11-23T05:14:44.317Z,2.40
2022-11-23T05:17:14.037Z,2.88
2022-11-23T05:19:41.862Z,3.15
2022-11-23T05:22:08.471Z,2.40
2022-11-23T05:24:37.049Z,2.28
2022-11-23T05:27:08.685Z,1.90
2022-11-23T05:29:36.099Z,2.70
2022-11-23T05:32:04.788Z,3.00
2022-11-23T05:34:31.673Z,2.35
2022-11-23T05:36:59.069Z,2.17
2022-11-23T05:39:26.530Z,2.00
2022-11-23T05:41:54.121Z,1.92
2022-11-23T05:44:38.115Z,2.65
2022-11-23T05:47:08.235Z,2.17
2022-11-23T05:49:36.482Z,2.38
2022-11-23T05:52:04.987Z,2.22
2022-11-23T05:54:32.423Z,2.40
2022-11-23T05:57:07.179Z,2.08
2022-11-23T05:59:37.167Z,2.72
2022-11-23T06:02:04.208Z,2.15
2022-11-23T06:04:34.803Z,2.38
2022-11-23T06:07:01.867Z,2.38
2022-11-23T06:09:53.756Z,2.05
2022-11-23T06:12:20.930Z,2.10
2022-11-23T06:14:47.693Z,2.85
2022-11-23T06:17:17.210Z,2.17
2022-11-23T06:19:49.114Z,2.50
2022-11-23T06:22:15.771Z,2.47
2022-11-23T06:24:51.193Z,2.40
2022-11-23T06:27:36.338Z,2.55
2022-11-23T06:30:08.705Z,2.22
2022-11-23T06:32:38.041Z,2.33
2022-11-23T06:35:05.173Z,2.90
2022-11-23T06:37:35.121Z,2.25
2022-11-23T06:40:01.963Z,2.35
2022-11-23T06:42:39.087Z,2.05
2022-11-23T06:45:12.706Z,2.97
2022-11-23T06:47:39.807Z,2.25
2022-11-23T06:50:07.317Z,2.53
2022-11-23T06:52:33.875Z,3.63
2022-11-23T06:55:00.505Z,2.85
2022-11-23T06:57:27.179Z,2.60
2022-11-23T06:59:54.753Z,2.25
2022-11-23T07:02:28.362Z,3.05
2022-11-23T07:04:57.621Z,2.47
2022-11-23T07:07:25.333Z,2.58
2022-11-23T07:10:05.437Z,2.60
2022-11-23T07:12:41.563Z,2.78
2022-11-23T07:15:14.211Z,3.38
2022-11-23T07:17:44.807Z,3.10
2022-11-23T07:20:13.766Z,2.72
2022-11-23T07:22:42.036Z,2.75
2022-11-23T07:25:11.432Z,2.97
2022-11-23T07:27:38.364Z,2.55
2022-11-23T07:30:08.116Z,2.45
2022-11-23T07:32:34.782Z,3.17
2022-11-23T07:35:01.922Z,2.53
2022-11-23T07:37:30.336Z,4.25
2022-11-23T07:39:58.417Z,2.65
2022-11-23T07:42:34.553Z,2.80
2022-11-23T07:45:05.199Z,2.13
2022-11-23T07:47:32.282Z,2.53
2022-11-23T07:49:58.994Z,2.80
2022-11-23T07:52:25.540Z,2.80
2022-11-23T07:54:52.425Z,2.40
2022-11-23T07:57:19.020Z,2.20
2022-11-23T07:59:45.592Z,3.03
2022-11-23T08:02:16.105Z,2.72
2022-11-23T08:04:42.795Z,2.50
2022-11-23T08:07:09.476Z,2.33
2022-11-23T08:09:36.477Z,2.72
2022-11-23T08:12:03.126Z,2.55
2022-11-23T08:14:30.212Z,1.70
2022-11-23T08:16:57.517Z,2.45
2022-11-23T08:19:24.119Z,2.20
2022-11-23T08:21:50.704Z,2.20
2022-11-23T08:24:17.382Z,2.55
2022-11-23T08:26:43.959Z,2.58
2022-11-23T08:29:10.481Z,2.55
2022-11-23T08:31:37.083Z,2.47
2022-11-23T08:34:03.984Z,2.45
2022-11-23T08:36:30.609Z,2.72
2022-11-23T08:38:57.310Z,2.80
2022-11-23T08:41:24.168Z,2.05
2022-11-23T08:43:51.309Z,2.25
2022-11-23T08:46:18.196Z,2.47
2022-11-23T08:48:45.000Z,2.45
2022-11-23T08:51:12.107Z,2.55
2022-11-23T08:53:39.331Z,2.20
2022-11-23T08:56:07.754Z,2.90
2022-11-23T08:58:34.699Z,2.60
2022-11-23T09:01:01.269Z,2.20
2022-11-23T09:03:27.913Z,2.20
2022-11-23T09:05:59.639Z,2.92
2022-11-23T09:08:26.435Z,2.15
2022-11-23T09:10:52.978Z,2.58
2022-11-23T09:13:19.811Z,2.45
2022-11-23T09:15:46.471Z,2.03
2022-11-23T09:18:13.098Z,2.55
2022-11-23T09:20:40.125Z,2.80
2022-11-23T09:23:12.204Z,2.40
2022-11-23T09:28:08.417Z,2.75
2022-11-23T09:30:35.123Z,2.85
2022-11-23T09:33:01.603Z,2.45
2022-11-23T09:35:28.272Z,3.05
2022-11-23T09:37:59.066Z,2.20
2022-11-23T09:40:32.762Z,2.35
2022-11-23T09:46:11.907Z,2.38
2022-11-23T09:48:52.472Z,2.53
2022-11-23T09:51:21.359Z,2.50
2022-11-23T09:54:00.108Z,2.88
2022-11-23T09:56:30.657Z,2.08
2022-11-23T09:59:01.468Z,2.33
2022-11-23T10:01:28.553Z,3.67
2022-11-23T10:03:55.359Z,2.10
2022-11-23T10:06:26.402Z,2.13
2022-11-23T10:09:11.496Z,2.35
2022-11-23T10:12:13.969Z,3.15
2022-11-23T10:14:43.539Z,1.60
2022-11-23T10:17:28.386Z,2.63
2022-11-23T10:20:12.585Z,2.00
2022-11-23T10:22:57.496Z,1.90
2022-11-23T10:25:26.255Z,1.90
2022-11-23T10:27:58.564Z,2.00
2022-11-23T10:30:25.314Z,1.90
2022-11-23T10:33:14.073Z,1.80
2022-11-23T10:35:40.898Z,1.67
2022-11-23T10:38:18.180Z,1.75
2022-11-23T10:41:09.911Z,2.28
2022-11-23T10:44:01.636Z,1.77
2022-11-23T10:46:37.080Z,3.08
2022-11-23T10:49:33.517Z,1.90
2022-11-23T10:52:23.313Z,1.92
2022-11-23T10:54:54.361Z,3.20
2022-11-23T10:57:39.858Z,1.55
2022-11-23T11:00:15.574Z,1.83
2022-11-23T11:02:47.537Z,2.72
2022-11-23T11:06:07.663Z,2.05
2022-11-23T11:08:22.078Z,2.28
2022-11-23T11:10:56.919Z,1.33
2022-11-23T11:13:32.630Z,1.90
2022-11-23T11:16:01.149Z,2.25
2022-11-23T11:18:31.707Z,2.05
2022-11-23T11:21:02.907Z,1.52
2022-11-23T11:23:31.238Z,1.73
2022-11-23T11:26:19.703Z,1.88
2022-11-23T11:28:49.947Z,1.70
2022-11-23T11:31:31.865Z,1.75
2022-11-23T11:34:04.322Z,1.60
2022-11-23T11:36:39.319Z,1.83
2022-11-23T11:39:18.856Z,2.35
2022-11-23T11:41:49.070Z,1.95
2022-11-23T11:44:24.690Z,1.77
2022-11-23T11:46:57.880Z,2.33
2022-11-23T11:49:30.202Z,1.52
2022-11-23T11:52:08.241Z,2.15
2022-11-23T11:54:51.999Z,2.10
2022-11-23T11:57:22.542Z,1.98
2022-11-23T11:59:53.627Z,2.03
2022-11-23T12:02:42.093Z,2.17
2022-11-23T12:05:22.249Z,2.40
2022-11-23T12:08:04.856Z,2.03
2022-11-23T12:10:41.831Z,1.73
2022-11-23T12:13:19.087Z,1.70
2022-11-23T12:15:50.836Z,1.75
2022-11-23T12:18:37.795Z,1.65
2022-11-23T12:21:18.141Z,3.30
2022-11-23T12:24:13.675Z,1.92
2022-11-23T12:27:08.312Z,2.47
2022-11-23T12:30:01.956Z,2.28
2022-11-23T12:33:06.031Z,1.65
2022-11-23T12:36:09.063Z,1.90
2022-11-23T12:38:54.493Z,3.05
2022-11-23T12:41:36.566Z,3.38
2022-11-23T12:44:24.494Z,2.10
2022-11-23T12:47:30.322Z,2.58
2022-11-23T12:50:38.377Z,2.25
2022-11-23T12:53:35.859Z,2.05
2022-11-23T12:56:17.374Z,2.28
2022-11-23T12:58:48.050Z,2.63
2022-11-23T13:01:39.178Z,2.38
2022-11-23T13:04:06.195Z,2.13
2022-11-23T13:07:28.427Z,2.13
2022-11-23T13:10:04.368Z,2.00
2022-11-23T13:12:30.927Z,2.70
2022-11-23T13:15:37.326Z,2.85
2022-11-23T13:18:19.971Z,2.38
2022-11-23T13:21:07.335Z,1.60
2022-11-23T13:23:39.233Z,2.22
2022-11-23T13:26:33.085Z,2.40
2022-11-23T13:29:01.372Z,2.08
2022-11-23T13:31:33.480Z,4.88
2022-11-23T13:34:24.499Z,1.98
2022-11-23T13:37:17.121Z,5.40
2022-11-23T13:39:43.895Z,5.57
2022-11-23T13:42:11.622Z,3.00
2022-11-23T13:44:38.374Z,9.00
2022-11-23T13:47:08.115Z,9.45
2022-11-23T13:49:51.177Z,9.45
2022-11-23T13:52:21.228Z,19.27
2022-11-23T13:55:02.648Z,23.90
2022-11-23T13:57:34.507Z,11.80
2022-11-23T14:00:38.475Z,14.30
2022-11-23T14:03:42.953Z,15.73
2022-11-23T14:06:40.684Z,9.57
2022-11-23T14:09:38.241Z,10.02
2022-11-23T14:12:26.819Z,4.05
2022-11-23T14:15:07.380Z,7.20
2022-11-23T14:18:05.074Z,4.32
2022-11-23T14:20:43.908Z,6.68
2022-11-23T14:23:48.140Z,3.50
2022-11-23T14:26:48.760Z,1.90
2022-11-23T14:29:18.256Z,2.58
2022-11-23T14:32:21.943Z,2.20
2022-11-23T14:35:01.148Z,3.53
2022-11-23T14:38:37.619Z,3.50
2022-11-23T14:41:12.929Z,3.65
2022-11-23T14:43:42.839Z,2.03
2022-11-23T14:46:19.951Z,3.40
2022-11-23T14:48:48.508Z,2.30
2022-11-23T14:51:18.634Z,2.42
2022-11-23T14:53:48.979Z,2.55
2022-11-23T14:56:38.196Z,2.55
2022-11-23T14:59:09.473Z,2.65
2022-11-23T15:01:46.108Z,3.75
2022-11-23T15:04:23.660Z,1.95
2022-11-23T15:06:55.072Z,2.05
2022-11-23T15:09:40.239Z,2.33
2022-11-23T15:12:21.063Z,2.58
2022-11-23T15:14:50.707Z,2.15
2022-11-23T15:17:19.881Z,2.40
2022-11-23T15:19:57.991Z,3.22
2022-11-23T15:22:25.601Z,2.35
2022-11-23T15:24:53.417Z,1.80
2022-11-23T15:27:28.395Z,2.05
2022-11-23T15:30:00.336Z,2.83
2022-11-23T15:32:34.198Z,2.70
2022-11-23T15:35:08.313Z,2.40
2022-11-23T15:37:43.933Z,2.47
2022-11-23T15:40:15.644Z,2.92
2022-11-23T15:42:43.973Z,2.55
2022-11-23T15:45:53.039Z,2.75
2022-11-23T15:48:22.919Z,2.60
2022-11-23T15:50:59.244Z,2.80
2022-11-23T15:53:29.301Z,2.10
2022-11-23T15:56:01.658Z,2.80
2022-11-23T15:58:29.633Z,2.78
2022-11-23T16:01:11.151Z,2.40
2022-11-23T16:03:52.301Z,1.90
2022-11-23T16:06:24.729Z,2.50
2022-11-23T16:08:51.760Z,2.13
2022-11-23T16:11:33.855Z,2.20
2022-11-23T16:14:15.296Z,2.50
2022-11-23T16:16:45.979Z,2.63
2022-11-23T16:19:33.324Z,2.45
2022-11-23T16:22:04.579Z,3.70
2022-11-23T16:24:34.190Z,4.43
2022-11-23T16:27:11.530Z,3.10
2022-11-23T16:29:38.192Z,2.30
2022-11-23T16:32:07.144Z,2.65
2022-11-23T16:34:34.116Z,2.88
2022-11-23T16:37:03.700Z,3.30
2022-11-23T16:39:30.307Z,3.63
2022-11-23T16:41:56.915Z,3.75
2022-11-23T16:44:23.510Z,3.05
2022-11-23T16:46:50.208Z,3.03
2022-11-23T16:49:23.391Z,3.38
2022-11-23T16:51:57.071Z,4.00
2022-11-23T16:54:25.392Z,3.67
2022-11-23T16:56:52.696Z,4.65
2022-11-23T16:59:19.740Z,4.10
2022-11-23T17:01:53.846Z,3.13
2022-11-23T17:04:24.311Z,3.35
2022-11-23T17:06:51.064Z,3.72
2022-11-23T17:09:17.639Z,4.95
2022-11-23T17:11:47.676Z,3.50
2022-11-23T17:14:18.884Z,3.80
2022-11-23T17:16:45.891Z,3.92
2022-11-23T17:19:17.549Z,3.63
2022-11-23T17:21:44.772Z,4.53
2022-11-23T17:24:12.922Z,4.28
2022-11-23T17:26:41.694Z,4.53
2022-11-23T17:29:14.309Z,4.13
2022-11-23T17:31:43.593Z,4.07
2022-11-23T17:34:10.306Z,5.20
2022-11-23T17:36:37.627Z,4.45
2022-11-23T17:39:04.555Z,3.78
2022-11-23T17:41:31.268Z,4.47
2022-11-23T17:44:01.028Z,5.07
2022-11-23T17:46:31.506Z,6.53
2022-11-23T17:48:59.146Z,4.85
2022-11-23T17:51:25.999Z,4.35
2022-11-23T17:53:52.884Z,8.95
2022-11-23T17:56:25.660Z,8.65
2022-11-23T17:58:53.127Z,7.43
2022-11-23T18:01:21.646Z,11.27
2022-11-23T18:03:48.637Z,19.48
2022-11-23T18:06:23.574Z,9.10
2022-11-23T18:08:52.015Z,22.90
2022-11-23T18:11:19.300Z,5.53
2022-11-23T18:13:47.576Z,5.95
2022-11-23T18:16:15.024Z,5.05
2022-11-23T18:18:41.825Z,5.45
2022-11-23T18:21:09.842Z,5.70
2022-11-23T18:23:36.722Z,9.73
2022-11-23T18:26:18.834Z,12.05
2022-11-23T18:28:46.317Z,7.05
2022-11-23T18:31:13.074Z,7.00
2022-11-23T18:33:40.883Z,7.38
2022-11-23T18:36:08.166Z,8.68
2022-11-23T18:38:34.961Z,7.22
2022-11-23T18:41:01.644Z,5.55
2022-11-23T18:43:28.863Z,27.58
2022-11-23T18:45:56.122Z,38.17
2022-11-23T18:48:23.312Z,32.15
2022-11-23T18:50:51.356Z,11.52
2022-11-23T18:53:22.678Z,26.35
2022-11-23T18:55:57.556Z,12.50
2022-11-23T18:58:32.654Z,8.27
2022-11-23T19:01:21.561Z,5.40
2022-11-23T19:03:51.264Z,5.63
2022-11-23T19:06:21.240Z,6.60
2022-11-23T19:08:50.093Z,6.15
2022-11-23T19:11:19.734Z,6.50
2022-11-23T19:13:51.539Z,6.40
2022-11-23T19:16:24.327Z,5.55
2022-11-23T19:19:05.277Z,5.93
2022-11-23T19:21:34.607Z,5.95
2022-11-23T19:24:01.752Z,6.13
2022-11-23T19:26:29.892Z,5.38
2022-11-23T19:28:56.996Z,7.47
2022-11-23T19:31:29.609Z,5.40
2022-11-23T19:34:00.908Z,5.40
2022-11-23T19:36:30.198Z,5.00
2022-11-23T19:38:58.190Z,5.07
2022-11-23T19:41:29.843Z,5.65
2022-11-23T19:44:05.536Z,5.55
2022-11-23T19:46:40.282Z,5.25
2022-11-23T19:49:08.494Z,5.15
2022-11-23T19:51:35.310Z,5.18
2022-11-23T19:54:02.207Z,5.38
2022-11-23T19:56:29.468Z,10.23
2022-11-23T19:58:58.735Z,4.85
2022-11-23T20:01:28.042Z,6.30
2022-11-23T20:03:57.910Z,7.93
2022-11-23T20:06:28.182Z,7.47
2022-11-23T20:08:59.499Z,11.30
2022-11-23T20:11:30.688Z,8.40
2022-11-23T20:14:05.360Z,7.97
2022-11-23T20:16:37.982Z,6.10
2022-11-23T20:19:11.581Z,6.40
2022-11-23T20:21:41.721Z,6.55
2022-11-23T20:24:21.109Z,5.07
2022-11-23T20:26:53.857Z,7.03
2022-11-23T20:29:23.587Z,5.28
2022-11-23T20:31:54.228Z,6.30
2022-11-23T20:34:31.638Z,6.15
2022-11-23T20:37:01.754Z,6.85
2022-11-23T20:40:04.595Z,5.78
2022-11-23T20:42:40.156Z,5.55
2022-11-23T20:45:31.302Z,5.63
2022-11-23T20:48:12.686Z,6.07
2022-11-23T20:51:10.280Z,5.32
2022-11-23T20:53:43.798Z,4.80
2022-11-23T20:56:22.911Z,5.63
2022-11-23T20:59:01.693Z,4.75
2022-11-23T21:01:58.309Z,4.63
2022-11-23T21:04:38.418Z,4.43
2022-11-23T21:07:23.893Z,5.38
2022-11-23T21:10:04.189Z,4.40
2022-11-23T21:12:53.436Z,4.15
2022-11-23T21:15:25.251Z,9.27
2022-11-23T21:17:52.486Z,5.10
2022-11-23T21:20:25.057Z,4.90
2022-11-23T21:22:52.490Z,6.72
2022-11-23T21:25:23.033Z,4.95
2022-11-23T21:27:51.056Z,6.07
2022-11-23T21:30:20.905Z,5.15
2022-11-23T21:33:00.384Z,5.28
2022-11-23T21:35:28.262Z,5.82
2022-11-23T21:37:58.310Z,5.25
2022-11-23T21:40:24.976Z,5.05
2022-11-23T21:42:52.110Z,3.88
2022-11-23T21:45:18.754Z,4.38
2022-11-23T21:47:46.577Z,4.90
2022-11-23T21:50:13.294Z,5.18
2022-11-23T21:52:39.864Z,4.57
2022-11-23T21:55:07.194Z,4.63
2022-11-23T21:57:33.758Z,5.50
2022-11-23T22:00:00.323Z,4.40
2022-11-23T22:02:26.986Z,4.20
2022-11-23T22:04:53.534Z,4.85
2022-11-23T22:07:24.264Z,4.75
2022-11-23T22:09:53.663Z,4.78
2022-11-23T22:12:20.187Z,4.68
2022-11-23T22:14:47.158Z,4.80
2022-11-23T22:17:13.636Z,4.50
2022-11-23T22:19:40.172Z,4.88
2022-11-23T22:22:07.431Z,4.03
2022-11-23T22:24:34.714Z,4.15
2022-11-23T22:27:02.107Z,4.93
2022-11-23T22:29:28.871Z,4.65
2022-11-23T22:31:55.580Z,4.28
2022-11-23T22:34:22.307Z,3.75
2022-11-23T22:36:50.726Z,4.03
2022-11-23T22:39:17.336Z,3.83
2022-11-23T22:41:43.990Z,3.30
2022-11-23T22:44:11.105Z,4.10
2022-11-23T22:46:38.607Z,3.83
2022-11-23T22:49:06.657Z,4.57
2022-11-23T22:51:33.498Z,5.00
2022-11-23T22:54:01.383Z,4.85
2022-11-23T22:56:29.609Z,4.20
2022-11-23T22:58:56.578Z,3.70
2022-11-23T23:01:29.646Z,4.15
2022-11-23T23:04:01.449Z,4.13
2022-11-23T23:06:30.753Z,3.78
2022-11-23T23:08:58.841Z,3.60
2022-11-23T23:11:28.449Z,3.92
2022-11-23T23:13:55.545Z,4.32
2022-11-23T23:16:22.586Z,3.08
2022-11-23T23:18:49.552Z,3.80
2022-11-23T23:21:21.043Z,3.85
2022-11-23T23:23:52.848Z,3.50
2022-11-23T23:26:22.225Z,4.13
2022-11-23T23:28:49.092Z,4.55
2022-11-23T23:31:17.363Z,4.40
2022-11-23T23:33:45.307Z,4.22
2022-11-23T23:36:17.315Z,3.10
2022-11-23T23:38:44.126Z,3.30
2022-11-23T23:41:12.068Z,3.03
2022-11-23T23:43:38.670Z,4.10
2022-11-23T23:46:07.658Z,3.75
2022-11-23T23:48:36.713Z,3.72
2022-11-23T23:51:11.059Z,4.07
2022-11-23T23:53:38.487Z,4.05
2022-11-23T23:56:31.766Z,4.10
2022-11-23T23:59:00.143Z,3.45
